Time;durP1;ratioP1;P1;durP2;ratioP2;P2;SDS_P1;SDS_P2;PMS_P1;PMS_P2;Temp;Humidity;BMP_temperature;BMP_pressure;BME280_temperature;BME280_humidity;BME280_pressure;Samples;Min_cycle;Max_cycle;Signal;HPM_P1;HPM_P2
2022/09/15 00:00:25;;;;;;;;;;;;;;;16.99;100.00;97534.64;2244795;78;20137;-59
2022/09/15 00:03:29;;;;;;;;;;;;;;;17.00;100.00;97544.24;2227862;78;20184;-59
2022/09/15 00:06:30;;;;;;;;;;;;;;;16.94;100.00;97537.79;2198641;80;20149;-59
2022/09/15 00:09:32;;;;;;;;;;;;;;;17.01;100.00;97532.16;2199476;80;20104;-59
2022/09/15 00:12:33;;;;;;;;;;;;;;;17.08;100.00;97529.66;2201087;80;20120;-59
2022/09/15 00:15:35;;;;;;;;;;;;;;;17.19;100.00;97525.34;2248621;77;20090;-58
2022/09/15 00:18:37;;;;;;;;;;;;;;;17.20;100.00;97521.70;2250084;78;20137;-57
2022/09/15 00:21:38;;;;;;;;;;;;;;;17.14;100.00;97515.77;2198384;80;20109;-57
2022/09/15 00:24:40;;;;;;;;;;;;;;;17.24;100.00;97508.94;2196185;80;20097;-59
2022/09/15 00:27:42;;;;;;;;;;;;;;;17.29;100.00;97509.27;2246570;79;20094;-58
2022/09/15 00:30:44;;;;;;;;;;;;;;;17.40;100.00;97508.11;2210972;80;20103;-57
2022/09/15 00:33:46;;;;;;;;;;;;;;;17.43;100.00;97493.19;2216237;80;20116;-57
2022/09/15 00:36:47;;;;;;;;;;;;;;;17.52;100.00;97496.64;2211023;80;20107;-57
2022/09/15 00:39:48;;;;;;;;;;;;;;;17.49;100.00;97493.83;2209403;80;20157;-56
2022/09/15 00:42:50;;;;;;;;;;;;;;;17.50;100.00;97491.51;2207695;80;20390;-59
2022/09/15 00:45:51;;;;;;;;;;;;;;;17.44;100.00;97491.69;2243512;78;20129;-58
2022/09/15 00:48:53;;;;;;;;;;;;;;;17.45;100.00;97488.02;2200811;80;20207;-59
2022/09/15 00:51:54;;;;;;;;;;;;;;;17.49;100.00;97485.87;2200473;80;20149;-59
2022/09/15 00:54:56;;;;;;;;;;;;;;;17.47;100.00;97486.55;2201320;80;20108;-59
2022/09/15 00:57:57;;;;;;;;;;;;;;;17.55;100.00;97476.41;2196906;80;20141;-59
2022/09/15 01:00:59;;;;;;;;;;;;;;;17.47;100.00;97477.27;2243843;79;20106;-59
2022/09/15 01:04:01;;;;;;;;;;;;;;;17.43;100.00;97478.09;2202896;80;20105;-59
2022/09/15 01:07:03;;;;;;;;;;;;;;;17.56;100.00;97465.63;2212552;80;20112;-58
2022/09/15 01:10:04;;;;;;;;;;;;;;;17.47;100.00;97468.81;2207184;80;20151;-59
2022/09/15 01:13:06;;;;;;;;;;;;;;;17.55;100.00;97471.92;2205826;80;20097;-59
2022/09/15 01:16:07;;;;;;;;;;;;;;;17.56;100.00;97460.84;2204059;80;20404;-59
2022/09/15 01:19:09;;;;;;;;;;;;;;;17.54;100.00;97461.02;2202625;80;20100;-59
2022/09/15 01:22:10;;;;;;;;;;;;;;;17.61;100.00;97454.03;2199821;80;20132;-58
2022/09/15 01:25:12;;;;;;;;;;;;;;;17.79;100.00;97449.80;2206130;80;20107;-59
2022/09/15 01:28:14;;;;;;;;;;;;;;;17.76;100.00;97450.66;2206171;80;20111;-58
2022/09/15 01:31:15;;;;;;;;;;;;;;;17.70;100.00;97448.20;2205189;80;20398;-58
2022/09/15 01:34:17;;;;;;;;;;;;;;;17.38;100.00;97448.62;2203782;80;20104;-59
2022/09/15 01:37:18;;;;;;;;;;;;;;;17.21;100.00;97441.72;2204728;80;20124;-60
2022/09/15 01:40:20;;;;;;;;;;;;;;;17.09;100.00;97446.04;2197428;80;20402;-59
2022/09/15 01:43:21;;;;;;;;;;;;;;;17.11;100.00;97441.42;2207178;80;20097;-58
2022/09/15 01:46:23;;;;;;;;;;;;;;;17.05;100.00;97441.25;2205189;80;20505;-59
2022/09/15 01:49:24;;;;;;;;;;;;;;;17.13;100.00;97438.59;2204160;79;20194;-59
2022/09/15 01:52:27;;;;;;;;;;;;;;;17.13;100.00;97438.59;2205061;80;20105;-58
2022/09/15 01:55:30;;;;;;;;;;;;;;;17.19;100.00;97432.61;2204174;80;20097;-59
2022/09/15 01:58:32;;;;;;;;;;;;;;;17.30;100.00;97424.30;2200435;80;20127;-58
2022/09/15 02:01:35;;;;;;;;;;;;;;;17.17;100.00;97416.55;2202216;80;20132;-60
2022/09/15 02:04:37;;;;;;;;;;;;;;;17.19;100.00;97418.05;2201145;80;20120;-58
2022/09/15 02:07:44;;;;;;;;;;;;;;;17.11;100.00;97424.20;2201733;80;20104;-58
2022/09/15 02:10:42;;;;;;;;;;;;;;;17.10;100.00;97421.72;2182835;80;20140;-58
2022/09/15 02:13:47;;;;;;;;;;;;;;;17.09;100.00;97420.06;2201107;80;20160;-58
2022/09/15 02:16:47;;;;;;;;;;;;;;;16.87;100.00;97416.28;2168491;80;20106;-59
2022/09/15 02:19:49;;;;;;;;;;;;;;;16.87;100.00;97421.06;2195411;79;20084;-59
2022/09/15 02:22:52;;;;;;;;;;;;;;;16.82;100.00;97427.34;2206593;80;20419;-59
2022/09/15 02:25:54;;;;;;;;;;;;;;;16.81;100.00;97424.39;2166525;79;20120;-57
2022/09/15 02:28:55;;;;;;;;;;;;;;;16.84;100.00;97428.02;2200987;80;20128;-57
2022/09/15 02:31:57;;;;;;;;;;;;;;;16.85;100.00;97440.75;2204870;80;20121;-57
2022/09/15 02:35:06;;;;;;;;;;;;;;;16.79;100.00;97436.48;2201876;80;20368;-58
2022/09/15 02:38:03;;;;;;;;;;;;;;;16.77;100.00;97413.80;2186530;79;20186;-56
2022/09/15 02:41:05;;;;;;;;;;;;;;;16.68;100.00;97408.17;2193774;80;20195;-57
2022/09/15 02:44:06;;;;;;;;;;;;;;;16.41;100.00;97400.41;2205315;80;20242;-59
2022/09/15 02:47:08;;;;;;;;;;;;;;;16.41;100.00;97391.15;2204319;80;20143;-58
2022/09/15 02:50:09;;;;;;;;;;;;;;;16.39;100.00;97394.95;2202378;80;20107;-58
2022/09/15 02:53:11;;;;;;;;;;;;;;;16.47;100.00;97390.98;2207400;80;20123;-58
2022/09/15 02:56:12;;;;;;;;;;;;;;;16.53;100.00;97390.82;2201678;80;20411;-59
2022/09/15 02:59:14;;;;;;;;;;;;;;;16.61;100.00;97396.12;2202133;80;20137;-60
2022/09/15 03:02:17;;;;;;;;;;;;;;;16.69;100.00;97390.80;2203590;80;20101;-59
2022/09/15 03:05:18;;;;;;;;;;;;;;;16.82;100.00;97387.63;2208619;80;20112;-59
2022/09/15 03:08:20;;;;;;;;;;;;;;;16.91;100.00;97384.50;2199632;80;20108;-59
2022/09/15 03:11:22;;;;;;;;;;;;;;;16.87;100.00;97385.31;2207105;80;20101;-59
2022/09/15 03:14:24;;;;;;;;;;;;;;;16.83;100.00;97383.18;2204549;79;20422;-59
2022/09/15 03:17:25;;;;;;;;;;;;;;;16.86;100.00;97378.36;2205272;80;20107;-59
2022/09/15 03:20:27;;;;;;;;;;;;;;;16.87;100.00;97378.70;2209971;80;20202;-59
2022/09/15 03:23:29;;;;;;;;;;;;;;;16.85;100.00;97377.20;2207807;79;20407;-59
2022/09/15 03:26:31;;;;;;;;;;;;;;;16.74;100.00;97377.89;2206189;79;20097;-59
2022/09/15 03:29:32;;;;;;;;;;;;;;;16.74;100.00;97373.11;2206446;80;20124;-58
2022/09/15 03:32:34;;;;;;;;;;;;;;;16.67;100.00;97376.09;2204597;80;20097;-59
2022/09/15 03:35:36;;;;;;;;;;;;;;;16.65;100.00;97370.13;2203601;80;20096;-59
2022/09/15 03:38:37;;;;;;;;;;;;;;;16.73;100.00;97366.15;2202366;81;20558;-59
2022/09/15 03:41:38;;;;;;;;;;;;;;;16.68;100.00;97361.36;2201490;80;20137;-59
2022/09/15 03:44:40;;;;;;;;;;;;;;;16.40;100.00;97364.35;2194920;80;20097;-59
2022/09/15 03:47:41;;;;;;;;;;;;;;;16.40;100.00;97375.44;2205351;80;20391;-59
2022/09/15 03:50:43;;;;;;;;;;;;;;;16.39;100.00;97371.98;2207141;80;20104;-59
2022/09/15 03:53:44;;;;;;;;;;;;;;;16.49;100.00;97375.76;2203323;79;20391;-59
2022/09/15 03:56:47;;;;;;;;;;;;;;;16.52;100.00;97372.80;2201386;80;20127;-59
2022/09/15 03:59:49;;;;;;;;;;;;;;;16.57;100.00;97370.97;2200579;80;20104;-59
2022/09/15 04:02:50;;;;;;;;;;;;;;;16.65;100.00;97369.64;2204159;80;20096;-59
2022/09/15 04:05:52;;;;;;;;;;;;;;;16.59;100.00;97379.56;2202699;80;20386;-59
2022/09/15 04:08:54;;;;;;;;;;;;;;;16.62;100.00;97380.55;2202877;80;20116;-59
2022/09/15 04:11:55;;;;;;;;;;;;;;;16.54;100.00;97384.03;2201555;80;20395;-58
2022/09/15 04:14:57;;;;;;;;;;;;;;;16.32;100.00;97384.70;2209255;80;20097;-59
2022/09/15 04:17:58;;;;;;;;;;;;;;;16.25;100.00;97388.01;2202476;81;20109;-58
2022/09/15 04:21:00;;;;;;;;;;;;;;;16.20;100.00;97392.14;2204814;80;20100;-59
2022/09/15 04:24:03;;;;;;;;;;;;;;;16.09;100.00;97400.73;2210328;80;20100;-58
2022/09/15 04:27:05;;;;;;;;;;;;;;;16.13;100.00;97399.08;2205180;80;20104;-58
2022/09/15 04:30:07;;;;;;;;;;;;;;;16.19;100.00;97397.94;2205056;80;20088;-57
2022/09/15 04:33:08;;;;;;;;;;;;;;;16.24;100.00;97398.25;2198025;79;20105;-56
2022/09/15 04:36:10;;;;;;;;;;;;;;;16.35;100.00;97401.56;2205540;80;20097;-57
2022/09/15 04:39:11;;;;;;;;;;;;;;;16.39;100.00;97398.92;2201301;80;20096;-57
2022/09/15 04:42:12;;;;;;;;;;;;;;;16.42;100.00;97398.58;2205497;80;20132;-57
2022/09/15 04:45:14;;;;;;;;;;;;;;;16.37;100.00;97396.44;2208360;80;20407;-57
2022/09/15 04:48:15;;;;;;;;;;;;;;;16.31;100.00;97403.72;2203529;80;20107;-59
2022/09/15 04:51:17;;;;;;;;;;;;;;;16.47;100.00;97406.05;2204252;80;20105;-59
2022/09/15 04:54:19;;;;;;;;;;;;;;;16.52;100.00;97403.23;2202090;80;20395;-59
2022/09/15 04:57:20;;;;;;;;;;;;;;;16.54;100.00;97406.53;2205472;80;20194;-58
2022/09/15 05:00:22;;;;;;;;;;;;;;;16.61;100.00;97404.88;2203783;80;20427;-59
2022/09/15 05:03:23;;;;;;;;;;;;;;;16.57;100.00;97404.05;2208460;80;20096;-59
2022/09/15 05:06:25;;;;;;;;;;;;;;;16.58;100.00;97403.07;2199923;80;20104;-59
2022/09/15 05:09:28;;;;;;;;;;;;;;;16.65;100.00;97401.89;2204437;79;20432;-59
2022/09/15 05:12:30;;;;;;;;;;;;;;;16.63;100.00;97400.23;2206322;80;20186;-59
2022/09/15 05:15:31;;;;;;;;;;;;;;;16.67;100.00;97395.44;2205272;80;20214;-58
2022/09/15 05:18:33;;;;;;;;;;;;;;;16.62;100.00;97399.92;2201533;80;20402;-58
2022/09/15 05:21:34;;;;;;;;;;;;;;;16.73;100.00;97388.66;2205793;79;20101;-59
2022/09/15 05:24:36;;;;;;;;;;;;;;;16.87;100.00;97383.17;2201635;80;20096;-59
2022/09/15 05:27:38;;;;;;;;;;;;;;;17.01;100.00;97383.84;2200689;80;20154;-58
2022/09/15 05:30:40;;;;;;;;;;;;;;;17.08;100.00;97387.45;2237932;78;20118;-59
2022/09/15 05:33:42;;;;;;;;;;;;;;;17.27;100.00;97386.73;2201247;80;20132;-59
2022/09/15 05:36:44;;;;;;;;;;;;;;;17.36;100.00;97394.97;2205886;80;20423;-58
2022/09/15 05:39:45;;;;;;;;;;;;;;;17.37;100.00;97390.48;2201020;80;20128;-57
2022/09/15 05:42:46;;;;;;;;;;;;;;;17.47;100.00;97391.13;2202032;80;20097;-59
2022/09/15 05:45:48;;;;;;;;;;;;;;;17.49;100.00;97397.08;2204666;80;20113;-58
2022/09/15 05:48:50;;;;;;;;;;;;;;;17.50;100.00;97397.41;2210939;79;20132;-60
2022/09/15 05:51:51;;;;;;;;;;;;;;;17.42;100.00;97408.85;2207171;80;20411;-59
2022/09/15 05:54:54;;;;;;;;;;;;;;;17.33;100.00;97411.73;2207915;79;20279;-58
2022/09/15 05:57:55;;;;;;;;;;;;;;;17.20;100.00;97416.23;2195092;79;20089;-59
2022/09/15 06:00:57;;;;;;;;;;;;;;;17.21;100.00;97416.06;2203539;80;20403;-59
2022/09/15 06:03:59;;;;;;;;;;;;;;;17.28;100.00;97413.06;2201956;80;20100;-58
2022/09/15 06:07:00;;;;;;;;;;;;;;;17.25;100.00;97418.68;2203958;80;20097;-59
2022/09/15 06:10:02;;;;;;;;;;;;;;;17.21;100.00;97423.17;2199906;80;20100;-58
2022/09/15 06:13:04;;;;;;;;;;;;;;;17.23;100.00;97428.63;2206673;80;20096;-58
2022/09/15 06:16:05;;;;;;;;;;;;;;;17.28;100.00;97428.12;2209855;80;20108;-57
2022/09/15 06:19:07;;;;;;;;;;;;;;;17.23;100.00;97429.14;2210961;80;20084;-57
2022/09/15 06:22:09;;;;;;;;;;;;;;;17.27;100.00;97431.27;2214812;80;20103;-59
2022/09/15 06:25:12;;;;;;;;;;;;;;;17.27;100.00;97433.92;2208077;80;20092;-58
2022/09/15 06:28:13;;;;;;;;;;;;;;;17.36;100.00;97431.26;2177442;80;20416;-59
2022/09/15 06:31:15;;;;;;;;;;;;;;;17.59;100.00;97423.38;2191330;80;20099;-59
2022/09/15 06:34:16;;;;;;;;;;;;;;;17.71;100.00;97423.82;2194216;80;20395;-59
2022/09/15 06:37:18;;;;;;;;;;;;;;;17.83;100.00;97425.09;2207464;80;20112;-57
2022/09/15 06:40:20;;;;;;;;;;;;;;;17.69;100.00;97427.97;2205677;80;20412;-57
2022/09/15 06:43:22;;;;;;;;;;;;;;;17.61;100.00;97426.19;2202594;79;20193;-57
2022/09/15 06:46:24;;;;;;;;;;;;;;;17.68;100.00;97425.50;2208798;80;20111;-57
2022/09/15 06:49:25;;;;;;;;;;;;;;;17.68;100.00;97432.94;2200192;80;20104;-58
2022/09/15 06:52:27;;;;;;;;;;;;;;;17.71;100.00;97434.42;2205270;80;20108;-59
2022/09/15 06:55:28;;;;;;;;;;;;;;;17.56;100.00;97448.91;2206646;79;20392;-59
2022/09/15 06:58:30;;;;;;;;;;;;;;;17.34;100.00;97457.93;2207960;79;20109;-59
2022/09/15 07:01:32;;;;;;;;;;;;;;;17.16;100.00;97464.75;2204991;80;20133;-58
2022/09/15 07:04:35;;;;;;;;;;;;;;;17.00;100.00;97460.30;2205337;80;20423;-59
2022/09/15 07:07:36;;;;;;;;;;;;;;;16.93;100.00;97460.14;2175113;80;20120;-59
2022/09/15 07:10:38;;;;;;;;;;;;;;;17.04;100.00;97467.41;2204597;80;20144;-58
2022/09/15 07:13:39;;;;;;;;;;;;;;;17.05;100.00;97472.56;2203277;80;20092;-58
2022/09/15 07:16:41;;;;;;;;;;;;;;;17.21;100.00;97474.36;2203634;80;20448;-59
2022/09/15 07:19:44;;;;;;;;;;;;;;;17.38;100.00;97479.09;2199257;80;20098;-59
2022/09/15 07:22:45;;;;;;;;;;;;;;;17.54;100.00;97482.22;2191376;80;20108;-59
2022/09/15 07:25:47;;;;;;;;;;;;;;;17.77;100.00;97483.63;2199536;80;20395;-59
2022/09/15 07:28:48;;;;;;;;;;;;;;;18.02;100.00;97487.52;2205800;80;20152;-58
2022/09/15 07:31:50;;;;;;;;;;;;;;;18.06;100.00;97492.81;2196421;80;20097;-59
2022/09/15 07:34:52;;;;;;;;;;;;;;;18.01;100.00;97501.77;2209465;80;20163;-59
2022/09/15 07:37:53;;;;;;;;;;;;;;;17.84;100.00;97508.94;2201873;80;20109;-60
2022/09/15 07:40:55;;;;;;;;;;;;;;;17.54;100.00;97523.79;2204221;80;20434;-59
2022/09/15 07:43:57;;;;;;;;;;;;;;;17.41;100.00;97530.94;2202466;80;20120;-58
2022/09/15 07:46:59;;;;;;;;;;;;;;;17.47;100.00;97524.98;2206936;80;20151;-59
2022/09/15 07:50:00;;;;;;;;;;;;;;;17.58;100.00;97533.88;2203756;80;20473;-59
2022/09/15 07:53:02;;;;;;;;;;;;;;;17.65;100.00;97537.50;2206467;79;20096;-59
2022/09/15 07:56:03;;;;;;;;;;;;;;;17.81;100.00;97543.77;2203823;80;20092;-60
2022/09/15 07:59:06;;;;;;;;;;;;;;;17.82;100.00;97556.85;2204303;80;20108;-59
2022/09/15 08:02:08;;;;;;;;;;;;;;;17.87;100.00;97554.19;2202328;80;20097;-59
2022/09/15 08:05:09;;;;;;;;;;;;;;;17.89;100.00;97550.38;2204759;80;20152;-59
2022/09/15 08:08:11;;;;;;;;;;;;;;;18.05;100.00;97544.72;2204684;80;20406;-58
2022/09/15 08:11:13;;;;;;;;;;;;;;;18.20;100.00;97550.93;2205370;80;20148;-58
2022/09/15 08:14:15;;;;;;;;;;;;;;;18.24;100.00;97556.73;2203358;80;20128;-58
2022/09/15 08:17:16;;;;;;;;;;;;;;;18.21;100.00;97563.20;2201939;80;20407;-59
2022/09/15 08:20:18;;;;;;;;;;;;;;;18.09;100.00;97572.56;2200780;81;20108;-60
2022/09/15 08:23:20;;;;;;;;;;;;;;;18.02;100.00;97568.43;2205945;80;20113;-58
2022/09/15 08:26:22;;;;;;;;;;;;;;;17.98;100.00;97573.75;2206506;79;20399;-59
2022/09/15 08:29:24;;;;;;;;;;;;;;;17.97;100.00;97570.28;2202577;80;20144;-59
2022/09/15 08:32:26;;;;;;;;;;;;;;;18.04;100.00;97569.08;2199575;80;20104;-59
2022/09/15 08:35:27;;;;;;;;;;;;;;;18.06;100.00;97572.40;2200318;81;20433;-57
2022/09/15 08:38:29;;;;;;;;;;;;;;;17.97;100.00;97583.55;2198744;80;20113;-57
2022/09/15 08:41:30;;;;;;;;;;;;;;;17.89;100.00;97586.69;2206672;79;20182;-58
2022/09/15 08:44:32;;;;;;;;;;;;;;;17.79;100.00;97592.18;2203893;80;20084;-59
2022/09/15 08:47:33;;;;;;;;;;;;;;;17.56;100.00;97587.58;2207267;79;20128;-56
2022/09/15 08:50:37;;;;;;;;;;;;;;;17.53;100.00;97591.05;2202446;80;20392;-59
2022/09/15 08:53:38;;;;;;;;;;;;;;;17.51;100.00;97591.22;2182615;80;20160;-60
2022/09/15 08:56:40;;;;;;;;;;;;;;;17.52;100.00;97594.72;2202760;80;20383;-59
2022/09/15 08:59:42;;;;;;;;;;;;;;;17.44;100.00;97598.19;2200341;81;20109;-59
2022/09/15 09:02:43;;;;;;;;;;;;;;;17.28;100.00;97609.63;2202773;80;20116;-59
2022/09/15 09:05:45;;;;;;;;;;;;;;;17.21;100.00;97618.75;2206947;80;20132;-59
2022/09/15 09:08:46;;;;;;;;;;;;;;;17.08;100.00;97621.05;2202233;80;20132;-58
2022/09/15 09:11:47;;;;;;;;;;;;;;;17.07;100.00;97625.52;2205983;79;20386;-59
2022/09/15 09:14:49;;;;;;;;;;;;;;;16.95;100.00;97626.82;2205156;79;20109;-58
2022/09/15 09:17:50;;;;;;;;;;;;;;;16.92;100.00;97629.33;2205170;80;20084;-59
2022/09/15 09:20:52;;;;;;;;;;;;;;;16.86;100.00;97624.63;2208192;80;20098;-58
2022/09/15 09:23:53;;;;;;;;;;;;;;;16.88;100.00;97624.48;2206614;80;20151;-58
2022/09/15 09:26:55;;;;;;;;;;;;;;;16.91;100.00;97630.30;2204628;80;20214;-59
2022/09/15 09:29:56;;;;;;;;;;;;;;;16.91;100.00;97640.90;2202403;80;20115;-59
2022/09/15 09:32:58;;;;;;;;;;;;;;;16.93;100.00;97644.70;2207104;80;20395;-59
2022/09/15 09:36:01;;;;;;;;;;;;;;;17.00;100.00;97646.22;2205906;80;20108;-59
2022/09/15 09:39:03;;;;;;;;;;;;;;;17.03;100.00;97643.23;2203128;80;20120;-59
2022/09/15 09:42:05;;;;;;;;;;;;;;;17.07;100.00;97644.06;2209837;79;20097;-60
2022/09/15 09:45:06;;;;;;;;;;;;;;;17.09;100.00;97655.31;2206846;80;20414;-59
2022/09/15 09:48:08;;;;;;;;;;;;;;;17.15;100.00;97648.53;2201186;80;20116;-59
2022/09/15 09:51:11;;;;;;;;;;;;;;;17.23;100.00;97640.59;2207632;80;20099;-59
2022/09/15 09:54:15;;;;;;;;;;;;;;;17.54;100.00;97638.63;2205151;80;20175;-59
2022/09/15 09:57:16;;;;;;;;;;;;;;;17.80;100.00;97634.92;2222029;79;20145;-59
2022/09/15 10:00:18;;;;;;;;;;;;;;;18.07;100.00;97635.05;2198699;81;20101;-59
2022/09/15 10:03:19;;;;;;;;;;;;;;;18.18;100.00;97634.69;2199101;80;20097;-58
2022/09/15 10:06:21;;;;;;;;;;;;;;;18.42;100.00;97632.95;2239833;79;20094;-59
2022/09/15 10:09:22;;;;;;;;;;;;;;;18.65;100.00;97629.53;2204557;80;20132;-60
2022/09/15 10:12:24;;;;;;;;;;;;;;;18.49;100.00;97624.63;2201885;80;20136;-59
2022/09/15 10:15:25;;;;;;;;;;;;;;;18.48;100.00;97626.12;2208569;80;20399;-59
2022/09/15 10:18:27;;;;;;;;;;;;;;;18.40;100.00;97624.83;2208644;79;20104;-59
2022/09/15 10:21:28;;;;;;;;;;;;;;;18.52;100.00;97624.79;2206942;80;20089;-59
2022/09/15 10:24:30;;;;;;;;;;;;;;;18.61;100.00;97622.92;2209959;80;20105;-59
2022/09/15 10:27:31;;;;;;;;;;;;;;;18.80;100.00;97618.98;2208245;80;20119;-60
2022/09/15 10:30:33;;;;;;;;;;;;;;;18.93;100.00;97619.77;2207699;80;20438;-57
2022/09/15 10:33:34;;;;;;;;;;;;;;;18.88;100.00;97611.00;2202846;79;20168;-57
2022/09/15 10:36:36;;;;;;;;;;;;;;;18.92;100.00;97607.48;2200680;80;20100;-57
2022/09/15 10:39:37;;;;;;;;;;;;;;;18.85;100.00;97614.80;2203105;80;20105;-57
2022/09/15 10:42:39;;;;;;;;;;;;;;;18.72;100.00;97619.02;2203672;80;20178;-57
2022/09/15 10:45:40;;;;;;;;;;;;;;;18.42;100.00;97620.16;2203368;80;20408;-57
2022/09/15 10:48:42;;;;;;;;;;;;;;;18.06;100.00;97631.25;2209591;80;20098;-59
2022/09/15 10:51:45;;;;;;;;;;;;;;;17.77;100.00;97625.50;2197375;80;20429;-59
2022/09/15 10:54:46;;;;;;;;;;;;;;;17.59;100.00;97633.63;2202643;80;20109;-59
2022/09/15 10:57:48;;;;;;;;;;;;;;;17.59;100.00;97623.03;2206014;80;20128;-59
2022/09/15 11:00:49;;;;;;;;;;;;;;;17.76;100.00;97622.51;2210366;80;20096;-59
2022/09/15 11:03:51;;;;;;;;;;;;;;;18.02;100.00;97625.47;2191705;80;20093;-59
2022/09/15 11:06:53;;;;;;;;;;;;;;;18.44;100.00;97614.20;2213801;80;20145;-59
2022/09/15 11:09:54;;;;;;;;;;;;;;;18.68;100.00;97617.23;2208439;80;20111;-59
2022/09/15 11:12:55;;;;;;;;;;;;;;;18.85;100.00;97612.66;2216103;80;20410;-58
2022/09/15 11:15:57;;;;;;;;;;;;;;;18.86;100.00;97618.27;2215185;80;20097;-59
2022/09/15 11:18:58;;;;;;;;;;;;;;;18.75;100.00;97619.52;2216052;80;20426;-58
2022/09/15 11:22:00;;;;;;;;;;;;;;;18.69;100.00;97621.52;2202044;80;20096;-59
2022/09/15 11:25:01;;;;;;;;;;;;;;;18.73;100.00;97615.37;2208937;79;20097;-59
2022/09/15 11:28:03;;;;;;;;;;;;;;;18.69;100.00;97615.73;2203442;80;20407;-59
2022/09/15 11:31:05;;;;;;;;;;;;;;;18.65;100.00;97610.95;2204833;80;20226;-59
2022/09/15 11:34:07;;;;;;;;;;;;;;;18.75;100.00;97606.72;2201444;79;20097;-59
2022/09/15 11:37:08;;;;;;;;;;;;;;;18.78;100.00;97611.19;2206954;80;20097;-59
2022/09/15 11:40:10;;;;;;;;;;;;;;;18.97;100.00;97604.62;2206637;80;20104;-59
2022/09/15 11:43:11;;;;;;;;;;;;;;;19.29;100.00;97600.05;2204706;80;20108;-59
2022/09/15 11:46:13;;;;;;;;;;;;;;;20.01;100.00;97612.05;2206045;80;20124;-59
2022/09/15 11:49:15;;;;;;;;;;;;;;;20.13;100.00;97615.06;2199367;80;20183;-59
2022/09/15 11:52:19;;;;;;;;;;;;;;;19.76;100.00;97612.77;2204756;80;20156;-59
2022/09/15 11:55:20;;;;;;;;;;;;;;;19.57;100.00;97603.48;2203941;80;20120;-59
2022/09/15 11:58:22;;;;;;;;;;;;;;;19.11;100.00;97607.53;2200316;80;20242;-58
2022/09/15 12:01:24;;;;;;;;;;;;;;;18.82;100.00;97611.66;2203729;80;20112;-59
2022/09/15 12:04:25;;;;;;;;;;;;;;;18.77;100.00;97608.20;2204372;80;20414;-59
2022/09/15 12:07:27;;;;;;;;;;;;;;;18.85;100.00;97610.00;2203497;80;20099;-59
2022/09/15 12:10:29;;;;;;;;;;;;;;;18.71;100.00;97608.91;2203633;80;20092;-59
2022/09/15 12:13:30;;;;;;;;;;;;;;;18.59;100.00;97610.30;2199649;79;20132;-59
2022/09/15 12:16:32;;;;;;;;;;;;;;;18.50;100.00;97609.52;2202079;80;20089;-59
2022/09/15 12:19:34;;;;;;;;;;;;;;;18.48;100.00;97604.89;2208785;80;20427;-57
2022/09/15 12:22:35;;;;;;;;;;;;;;;18.47;100.00;97597.92;2189555;80;20117;-57
2022/09/15 12:25:37;;;;;;;;;;;;;;;18.44;100.00;97592.96;2205451;80;20097;-57
2022/09/15 12:28:38;;;;;;;;;;;;;;;18.58;100.00;97594.06;2203156;80;20120;-57
2022/09/15 12:31:40;;;;;;;;;;;;;;;18.75;100.00;97590.78;2206269;80;20108;-59
2022/09/15 12:34:41;;;;;;;;;;;;;;;18.80;100.00;97591.09;2202786;79;20406;-58
2022/09/15 12:37:43;;;;;;;;;;;;;;;18.96;100.00;97599.48;2207385;80;20116;-58
2022/09/15 12:40:45;;;;;;;;;;;;;;;18.95;100.00;97601.33;2204063;80;20137;-58
2022/09/15 12:43:46;;;;;;;;;;;;;;;18.87;100.00;97597.39;2206178;80;20407;-59
2022/09/15 12:46:48;;;;;;;;;;;;;;;18.79;100.00;97596.92;2200146;81;20113;-58
2022/09/15 12:49:49;;;;;;;;;;;;;;;18.78;100.00;97602.41;2205563;79;20097;-60
2022/09/15 12:52:51;;;;;;;;;;;;;;;18.62;100.00;97603.30;2207315;80;20113;-60
2022/09/15 12:55:54;;;;;;;;;;;;;;;18.48;100.00;97590.29;2204584;80;20132;-59
2022/09/15 12:58:56;;;;;;;;;;;;;;;18.50;100.00;97591.78;2204415;80;20089;-59
2022/09/15 13:01:58;;;;;;;;;;;;;;;18.38;100.00;97596.32;2201787;80;20427;-59
2022/09/15 13:05:00;;;;;;;;;;;;;;;18.32;100.00;97596.51;2202857;80;20132;-59
2022/09/15 13:08:02;;;;;;;;;;;;;;;18.23;100.00;97594.39;2201805;80;20089;-59
2022/09/15 13:11:03;;;;;;;;;;;;;;;18.18;100.00;97592.74;2206504;80;20136;-60
2022/09/15 13:14:06;;;;;;;;;;;;;;;18.06;100.00;97588.80;2205732;80;20085;-59
2022/09/15 13:17:07;;;;;;;;;;;;;;;17.94;100.00;97589.67;2208212;80;20093;-59
2022/09/15 13:20:10;;;;;;;;;;;;;;;17.93;100.00;97593.31;2203933;79;20529;-59
2022/09/15 13:23:12;;;;;;;;;;;;;;;17.83;100.00;97584.22;2200717;80;20089;-59
2022/09/15 13:26:14;;;;;;;;;;;;;;;17.75;100.00;97586.38;2196387;80;20128;-59
2022/09/15 13:29:15;;;;;;;;;;;;;;;17.70;100.00;97594.03;2209215;79;20367;-59
2022/09/15 13:32:17;;;;;;;;;;;;;;;17.70;100.00;97598.48;2208170;80;20128;-60
2022/09/15 13:35:18;;;;;;;;;;;;;;;17.64;100.00;97595.53;2204463;80;20194;-59
2022/09/15 13:38:20;;;;;;;;;;;;;;;17.65;100.00;97578.59;2206230;80;20104;-60
2022/09/15 13:41:22;;;;;;;;;;;;;;;17.68;100.00;97581.92;2205425;80;20097;-59
2022/09/15 13:44:24;;;;;;;;;;;;;;;17.73;100.00;97579.09;2201905;81;20120;-59
2022/09/15 13:47:25;;;;;;;;;;;;;;;17.71;100.00;97578.42;2208553;80;20151;-59
2022/09/15 13:50:27;;;;;;;;;;;;;;;17.71;100.00;97579.75;2206938;80;20096;-59
2022/09/15 13:53:29;;;;;;;;;;;;;;;17.79;100.00;97589.53;2204425;80;20391;-59
2022/09/15 13:56:31;;;;;;;;;;;;;;;17.68;100.00;97576.63;2206115;80;20196;-59
2022/09/15 13:59:33;;;;;;;;;;;;;;;17.63;100.00;97590.39;2209908;80;20419;-59
2022/09/15 14:02:35;;;;;;;;;;;;;;;17.52;100.00;97581.46;2199511;81;20108;-58
2022/09/15 14:05:36;;;;;;;;;;;;;;;17.45;100.00;97579.97;2197995;80;20112;-59
2022/09/15 14:08:38;;;;;;;;;;;;;;;17.43;100.00;97585.44;2206328;80;20109;-59
2022/09/15 14:11:40;;;;;;;;;;;;;;;17.39;100.00;97584.12;2213446;79;20178;-59
2022/09/15 14:14:41;;;;;;;;;;;;;;;17.38;100.00;97586.42;2206479;80;20407;-60
2022/09/15 14:17:43;;;;;;;;;;;;;;;17.41;100.00;97575.99;2200799;80;20128;-59
2022/09/15 14:20:44;;;;;;;;;;;;;;;17.39;100.00;97583.30;2210806;79;20111;-59
2022/09/15 14:23:46;;;;;;;;;;;;;;;17.45;100.00;97587.41;2204942;80;20104;-59
2022/09/15 14:26:47;;;;;;;;;;;;;;;17.28;100.00;97585.30;2204086;79;20102;-58
2022/09/15 14:29:49;;;;;;;;;;;;;;;17.23;100.00;97585.47;2203190;80;20375;-57
2022/09/15 14:32:51;;;;;;;;;;;;;;;17.22;100.00;97580.64;2199950;79;20163;-57
2022/09/15 14:35:52;;;;;;;;;;;;;;;17.16;100.00;97579.99;2205154;80;20139;-59
2022/09/15 14:38:54;;;;;;;;;;;;;;;17.10;100.00;97574.86;2204530;80;20408;-58
2022/09/15 14:41:55;;;;;;;;;;;;;;;17.07;100.00;97563.27;2197490;80;20111;-57
2022/09/15 14:44:57;;;;;;;;;;;;;;;17.05;100.00;97570.57;2206754;80;20105;-59
2022/09/15 14:47:59;;;;;;;;;;;;;;;16.97;100.00;97571.88;2203558;80;20085;-60
2022/09/15 14:51:01;;;;;;;;;;;;;;;16.97;100.00;97570.05;2201599;80;20110;-59
2022/09/15 14:54:03;;;;;;;;;;;;;;;17.07;100.00;97559.30;2205268;79;20119;-59
2022/09/15 14:57:05;;;;;;;;;;;;;;;17.14;100.00;97563.45;2201028;80;20524;-59
2022/09/15 15:00:06;;;;;;;;;;;;;;;17.12;100.00;97560.97;2202029;80;20178;-59
2022/09/15 15:03:08;;;;;;;;;;;;;;;17.22;100.00;97553.33;2202468;79;20163;-58
2022/09/15 15:06:10;;;;;;;;;;;;;;;17.25;100.00;97549.02;2205886;79;20179;-59
2022/09/15 15:09:11;;;;;;;;;;;;;;;17.27;100.00;97543.89;2203647;79;20108;-58
2022/09/15 15:12:13;;;;;;;;;;;;;;;17.28;100.00;97545.55;2207747;80;20423;-58
2022/09/15 15:15:14;;;;;;;;;;;;;;;17.28;100.00;97540.73;2213485;80;20107;-59
2022/09/15 15:18:16;;;;;;;;;;;;;;;17.26;100.00;97542.22;2195610;81;20099;-59
2022/09/15 15:21:17;;;;;;;;;;;;;;;17.21;100.00;97543.72;2207698;80;20096;-60
2022/09/15 15:24:19;;;;;;;;;;;;;;;17.25;100.00;97536.59;2203797;80;20108;-59
2022/09/15 15:27:21;;;;;;;;;;;;;;;17.28;100.00;97542.05;2206554;79;20415;-58
2022/09/15 15:30:22;;;;;;;;;;;;;;;17.22;100.00;97540.08;2202808;80;20138;-58